Gwinner, North Dakota
Current Conditions -  °F | °C
As of 6:55 PM on Wednesday 22 Oct 2014 (Local Time) from KGWR Reporting Station
Broken Clouds Broken Clouds  
Wind Chill: 55°   Ceiling: 3400
Heat Index: 55°   Visibility: 10mi
Dew Point: 55°   Wind: 8mph
Humidity: 100%   Direction: 240°WSW
Pressure: 29.92"   Gusts: NA
Location:  46.23°N, 97.66°W
Report Text: KGWR 222355Z AUTO 24007KT 10SM BKN034 13/13 A2992 RMK A01 P000
Loading
Personal Weather Stations






























Interactive Weather Map
Tropical Storm Tracking
New forecast layout! Learn more

10-Day Weather Forecast

Advertisements
Track Severe Weather on mobile